createdAt,value
2022-09-28T00:02:24.186Z,89126.91
2022-09-28T00:04:51.093Z,89124.69
2022-09-28T00:07:17.825Z,89128.25
2022-09-28T00:09:44.679Z,89127.91
2022-09-28T00:12:11.534Z,89129.16
2022-09-28T00:14:38.365Z,89123.00
2022-09-28T00:17:05.142Z,89121.38
2022-09-28T00:19:32.076Z,89124.97
2022-09-28T00:21:58.772Z,89123.13
2022-09-28T00:24:27.754Z,89125.66
2022-09-28T00:26:56.890Z,89126.91
2022-09-28T00:29:25.436Z,89130.88
2022-09-28T00:31:54.528Z,89123.84
2022-09-28T00:34:21.602Z,89123.44
2022-09-28T00:36:48.747Z,89120.03
2022-09-28T00:39:16.883Z,89118.09
2022-09-28T00:41:44.591Z,89106.19
2022-09-28T00:44:26.505Z,89101.84
2022-09-28T00:46:58.678Z,89093.72
2022-09-28T00:49:34.745Z,89098.03
2022-09-28T00:52:05.103Z,89087.25
2022-09-28T00:54:32.331Z,89093.50
2022-09-28T00:57:01.084Z,89084.84
2022-09-28T00:59:28.089Z,89082.34
2022-09-28T01:01:54.997Z,89083.59
2022-09-28T01:04:25.896Z,89087.34
2022-09-28T01:06:56.794Z,89083.59
2022-09-28T01:09:26.100Z,89087.78
2022-09-28T01:11:53.061Z,89080.94
2022-09-28T01:14:20.246Z,89074.69
2022-09-28T01:16:59.007Z,89077.38
2022-09-28T01:19:56.767Z,89084.97
2022-09-28T01:22:53.726Z,89081.53
2022-09-28T01:25:47.803Z,89079.75
2022-09-28T01:28:17.559Z,89089.09
2022-09-28T01:30:51.281Z,89094.69
2022-09-28T01:33:24.300Z,89093.56
2022-09-28T01:36:04.547Z,89096.06
2022-09-28T01:38:38.236Z,89100.56
2022-09-28T01:41:06.579Z,89091.31
2022-09-28T01:43:39.241Z,89095.75
2022-09-28T01:46:21.476Z,89087.63
2022-09-28T01:48:56.698Z,89080.00
2022-09-28T01:51:38.860Z,89103.16
2022-09-28T01:54:21.205Z,89101.88
2022-09-28T01:56:55.834Z,89100.78
2022-09-28T01:59:30.117Z,89098.81
2022-09-28T02:02:33.491Z,89094.50
2022-09-28T02:05:18.171Z,89088.34
2022-09-28T02:07:56.364Z,89080.53
2022-09-28T02:10:28.439Z,89078.50
2022-09-28T02:13:07.067Z,89078.59
2022-09-28T02:15:58.571Z,89063.75
2022-09-28T02:18:25.429Z,89067.53
2022-09-28T02:21:01.506Z,89065.19
2022-09-28T02:23:30.573Z,89058.03
2022-09-28T02:26:09.217Z,89040.56
2022-09-28T02:28:36.275Z,89031.91
2022-09-28T02:31:03.166Z,89026.50
2022-09-28T02:33:36.463Z,89031.66
2022-09-28T02:36:03.798Z,89032.00
2022-09-28T02:38:31.984Z,89030.94
2022-09-28T02:41:31.561Z,89030.47
2022-09-28T02:44:18.578Z,89042.69
2022-09-28T02:46:54.201Z,89049.50
2022-09-28T02:49:23.832Z,89054.78
2022-09-28T02:52:26.897Z,89053.16
2022-09-28T02:55:24.698Z,89067.53
2022-09-28T02:58:19.168Z,89079.94
2022-09-28T03:01:21.544Z,89075.44
2022-09-28T03:04:14.178Z,89088.47
2022-09-28T03:07:04.510Z,89102.47
2022-09-28T03:09:48.373Z,89103.78
2022-09-28T03:12:19.096Z,89098.53
2022-09-28T03:14:46.055Z,89092.03
2022-09-28T03:17:12.879Z,89082.94
2022-09-28T03:19:39.861Z,89085.16
2022-09-28T03:22:06.658Z,89088.94
2022-09-28T03:24:33.600Z,89091.81
2022-09-28T03:27:00.523Z,89091.53
2022-09-28T03:29:27.259Z,89097.06
2022-09-28T03:31:54.107Z,89089.03
2022-09-28T03:34:21.175Z,89088.03
2022-09-28T03:36:47.917Z,89091.44
2022-09-28T03:39:14.748Z,89092.63
2022-09-28T03:41:41.764Z,89099.38
2022-09-28T03:44:08.457Z,89091.50
2022-09-28T03:46:35.202Z,89100.31
2022-09-28T03:49:02.017Z,89103.75
2022-09-28T03:51:28.872Z,89109.47
2022-09-28T03:53:55.664Z,89123.97
2022-09-28T03:56:22.431Z,89124.03
2022-09-28T03:58:49.238Z,89119.81
2022-09-28T04:01:17.493Z,89114.19
2022-09-28T04:03:45.553Z,89112.31
2022-09-28T04:06:12.653Z,89124.75
2022-09-28T04:08:39.846Z,89120.13
2022-09-28T04:11:06.982Z,89119.03
2022-09-28T04:13:33.755Z,89121.97
2022-09-28T04:16:01.550Z,89145.13
2022-09-28T04:18:29.253Z,89142.84
2022-09-28T04:21:07.891Z,89140.47
2022-09-28T04:23:38.945Z,89141.38
2022-09-28T04:26:08.178Z,89141.78
2022-09-28T04:28:35.276Z,89133.38
2022-09-28T04:31:02.014Z,89141.38
2022-09-28T04:33:28.718Z,89139.75
2022-09-28T04:35:55.544Z,89149.25
2022-09-28T04:38:35.822Z,89156.91
2022-09-28T04:41:08.561Z,89149.34
2022-09-28T04:43:35.353Z,89161.53
2022-09-28T04:46:03.291Z,89167.44
2022-09-28T04:48:30.163Z,89160.31
2022-09-28T04:50:58.724Z,89156.47
2022-09-28T04:53:26.829Z,89159.94
2022-09-28T04:56:05.838Z,89146.28
2022-09-28T04:58:35.175Z,89147.84
2022-09-28T05:01:05.064Z,89144.72
2022-09-28T05:03:32.038Z,89140.28
2022-09-28T05:05:59.005Z,89150.63
2022-09-28T05:08:26.822Z,89151.28
2022-09-28T05:11:06.213Z,89162.16
2022-09-28T05:13:34.341Z,89164.66
2022-09-28T05:16:05.257Z,89166.78
2022-09-28T05:18:32.556Z,89168.41
2022-09-28T05:20:59.385Z,89163.16
2022-09-28T05:23:26.221Z,89160.59
2022-09-28T05:25:53.555Z,89161.13
2022-09-28T05:28:25.135Z,89164.53
2022-09-28T05:30:52.178Z,89161.00
2022-09-28T05:33:19.077Z,89168.22
2022-09-28T05:35:48.738Z,89160.31
2022-09-28T05:38:17.958Z,89160.31
2022-09-28T05:40:44.841Z,89161.03
2022-09-28T05:43:11.653Z,89154.56
2022-09-28T05:45:38.522Z,89151.75
2022-09-28T05:48:05.294Z,89162.19
2022-09-28T05:50:32.048Z,89162.63
2022-09-28T05:53:07.291Z,89154.66
2022-09-28T05:55:35.521Z,89164.38
2022-09-28T05:58:05.423Z,89169.84
2022-09-28T06:00:33.428Z,89173.47
2022-09-28T06:03:05.480Z,89170.09
2022-09-28T06:05:36.478Z,89167.91
2022-09-28T06:08:04.602Z,89169.38
2022-09-28T06:10:31.662Z,89166.47
2022-09-28T06:12:58.808Z,89171.00
2022-09-28T06:15:28.171Z,89173.56
2022-09-28T06:17:58.737Z,89177.03
2022-09-28T06:20:27.098Z,89177.19
2022-09-28T06:22:54.503Z,89175.41
2022-09-28T06:25:22.890Z,89172.56
2022-09-28T06:28:11.033Z,89171.59
2022-09-28T06:30:38.655Z,89171.66
2022-09-28T06:33:07.627Z,89177.03
2022-09-28T06:35:35.714Z,89172.94
2022-09-28T06:38:02.758Z,89165.91
2022-09-28T06:40:29.766Z,89164.69
2022-09-28T06:43:07.385Z,89166.81
2022-09-28T06:45:34.153Z,89158.66
2022-09-28T06:48:01.496Z,89162.66
2022-09-28T06:50:32.037Z,89161.16
2022-09-28T06:53:00.072Z,89159.34
2022-09-28T06:55:27.094Z,89171.97
2022-09-28T06:58:02.127Z,89159.72
2022-09-28T07:00:30.706Z,89162.25
2022-09-28T07:02:57.455Z,89165.63
2022-09-28T07:05:24.589Z,89153.84
2022-09-28T07:07:51.340Z,89146.72
2022-09-28T07:10:18.199Z,89131.53
2022-09-28T07:12:45.598Z,89140.69
2022-09-28T07:15:12.313Z,89150.19
2022-09-28T07:18:00.246Z,89146.28
2022-09-28T07:20:30.116Z,89151.97
2022-09-28T07:23:10.266Z,89153.75
2022-09-28T07:25:43.150Z,89150.53
2022-09-28T07:28:09.901Z,89143.88
2022-09-28T07:30:36.702Z,89152.41
2022-09-28T07:33:05.332Z,89161.88
2022-09-28T07:35:32.601Z,89145.78
2022-09-28T07:38:00.913Z,89155.06
2022-09-28T07:40:28.573Z,89157.06
2022-09-28T07:42:55.395Z,89148.13
2022-09-28T07:45:22.863Z,89143.22
2022-09-28T07:47:50.481Z,89132.97
2022-09-28T07:50:17.691Z,89134.41
2022-09-28T07:52:44.438Z,89144.97
2022-09-28T07:55:11.227Z,89141.44
2022-09-28T07:57:37.981Z,89139.16
2022-09-28T08:00:05.282Z,89134.88
2022-09-28T08:02:32.141Z,89134.66
2022-09-28T08:04:58.951Z,89151.84
2022-09-28T08:07:25.840Z,89140.09
2022-09-28T08:09:53.072Z,89159.97
2022-09-28T08:12:20.718Z,89149.19
2022-09-28T08:14:48.430Z,89135.34
2022-09-28T08:17:15.400Z,89135.09
2022-09-28T08:19:42.172Z,89134.22
2022-09-28T08:22:08.954Z,89136.28
2022-09-28T08:24:35.809Z,89135.16
2022-09-28T08:27:02.559Z,89142.38
2022-09-28T08:29:29.335Z,89112.66
2022-09-28T08:32:00.756Z,89130.81
2022-09-28T08:34:28.170Z,89116.72
2022-09-28T08:36:58.257Z,89106.72
2022-09-28T08:39:25.044Z,89105.28
2022-09-28T08:42:30.754Z,89117.13
2022-09-28T08:45:04.787Z,89106.50
2022-09-28T09:25:28.133Z,89130.88
2022-09-28T09:28:25.991Z,89125.75
2022-09-28T09:31:22.659Z,89126.91
2022-09-28T09:34:16.582Z,89131.13
2022-09-28T09:36:46.504Z,89116.00
2022-09-28T09:39:51.535Z,89115.31
2022-09-28T09:42:32.819Z,89116.03
2022-09-28T09:45:09.523Z,89123.25
2022-09-28T09:47:43.936Z,89122.38
2022-09-28T09:50:27.027Z,89115.44
2022-09-28T09:53:37.699Z,89109.84
2022-09-28T09:56:11.347Z,89109.22
2022-09-28T09:58:44.916Z,89104.09
2022-09-28T10:01:14.686Z,89096.41
2022-09-28T10:03:44.809Z,89086.44
2022-09-28T10:06:19.791Z,89090.81
2022-09-28T10:08:52.694Z,89102.78
2022-09-28T10:11:26.148Z,89102.78
2022-09-28T10:13:53.286Z,89092.41
2022-09-28T10:16:20.308Z,89094.28
2022-09-28T10:18:48.230Z,89095.50
2022-09-28T10:21:18.522Z,89097.94
2022-09-28T10:23:48.118Z,89106.97
2022-09-28T10:26:28.581Z,89099.22
2022-09-28T10:29:01.705Z,89084.00
2022-09-28T10:31:37.394Z,89081.84
2022-09-28T10:34:08.810Z,89068.78
2022-09-28T10:37:05.127Z,89091.72
2022-09-28T10:39:35.876Z,89083.50
2022-09-28T10:42:07.820Z,89075.31
2022-09-28T10:44:43.290Z,89084.63
2022-09-28T10:47:15.435Z,89099.66
2022-09-28T10:49:47.305Z,89091.69
2022-09-28T10:52:32.829Z,89089.47
2022-09-28T10:55:00.082Z,89078.63
2022-09-28T10:57:36.119Z,89079.69
2022-09-28T11:00:05.282Z,89083.03
2022-09-28T11:02:37.235Z,89077.22
2022-09-28T11:05:06.858Z,89064.28
2022-09-28T11:07:44.606Z,89065.81
2022-09-28T11:10:21.769Z,89062.03
2022-09-28T11:12:50.195Z,89082.56
2022-09-28T11:15:22.744Z,89072.97
2022-09-28T11:17:49.470Z,89072.66
2022-09-28T11:20:27.762Z,89076.47
2022-09-28T11:23:18.082Z,89085.47
2022-09-28T11:26:06.508Z,89077.78
2022-09-28T11:28:39.335Z,89076.38
2022-09-28T11:31:08.201Z,89079.22
2022-09-28T11:33:40.063Z,89074.22
2022-09-28T11:36:23.123Z,89084.50
2022-09-28T11:39:05.130Z,89079.50
2022-09-28T11:41:53.738Z,89079.94
2022-09-28T11:44:39.831Z,89068.88
2022-09-28T11:47:28.093Z,89071.44
2022-09-28T11:50:05.632Z,89070.09
2022-09-28T11:52:46.710Z,89076.53
2022-09-28T11:55:45.514Z,89073.19
2022-09-28T11:58:20.664Z,89059.72
2022-09-28T12:00:52.247Z,89058.03
2022-09-28T12:03:25.541Z,89068.88
2022-09-28T12:06:05.347Z,89067.97
2022-09-28T12:08:36.858Z,89074.94
2022-09-28T12:11:17.910Z,89075.25
2022-09-28T12:13:48.118Z,89073.69
2022-09-28T12:16:53.495Z,89084.53
2022-09-28T12:19:36.592Z,89072.25
2022-09-28T12:22:11.693Z,89082.31
2022-09-28T12:24:49.243Z,89071.22
2022-09-28T12:27:40.329Z,89076.16
2022-09-28T12:30:20.356Z,89073.91
2022-09-28T12:33:07.893Z,89060.28
2022-09-28T12:35:59.140Z,89064.56
2022-09-28T12:39:08.485Z,89064.66
2022-09-28T12:42:06.423Z,89058.41
2022-09-28T12:44:39.121Z,89062.84
2022-09-28T12:47:24.409Z,89061.22
2022-09-28T12:53:11.090Z,89058.41
2022-09-28T12:55:58.221Z,89061.03
2022-09-28T12:58:38.731Z,89054.91
2022-09-28T13:01:24.241Z,89054.81
2022-09-28T13:04:13.901Z,89060.97
2022-09-28T13:07:09.398Z,89069.44
2022-09-28T13:10:04.181Z,89047.09
2022-09-28T13:12:48.455Z,89042.66
2022-09-28T13:15:18.148Z,89047.97
2022-09-28T13:18:23.968Z,89048.25
2022-09-28T13:20:50.721Z,89042.19
2022-09-28T13:23:28.933Z,89047.22
2022-09-28T13:26:07.232Z,89055.03
2022-09-28T13:28:36.175Z,89054.81
2022-09-28T13:31:04.615Z,89053.34
2022-09-28T13:33:34.154Z,89049.31
2022-09-28T13:36:01.235Z,89051.91
2022-09-28T13:38:27.918Z,89068.16
2022-09-28T13:41:04.056Z,89057.41
2022-09-28T13:43:45.685Z,89056.78
2022-09-28T13:46:35.273Z,89052.38
2022-09-28T13:49:26.601Z,89046.41
2022-09-28T13:51:59.581Z,89061.03
2022-09-28T13:54:57.143Z,89053.38
2022-09-28T13:57:51.761Z,89052.16
2022-09-28T14:00:34.804Z,89054.22
2022-09-28T14:03:25.535Z,89053.31
2022-09-28T14:06:10.679Z,89057.91
2022-09-28T14:09:04.724Z,89051.38
2022-09-28T14:11:34.300Z,89054.25
2022-09-28T14:14:02.251Z,89054.81
2022-09-28T14:16:31.348Z,89052.97
2022-09-28T14:19:03.314Z,89061.66
2022-09-28T14:21:58.938Z,89060.13
2022-09-28T14:24:54.546Z,89075.78
2022-09-28T14:27:58.297Z,89078.31
2022-09-28T14:30:44.216Z,89080.63
2022-09-28T14:33:26.692Z,89078.22
2022-09-28T14:35:58.833Z,89085.63
2022-09-28T14:38:47.351Z,89086.03
2022-09-28T14:41:17.122Z,89091.97
2022-09-28T14:43:43.960Z,89082.66
2022-09-28T14:46:10.823Z,89087.59
2022-09-28T14:48:52.251Z,89085.47
2022-09-28T14:51:24.919Z,89085.47
2022-09-28T14:53:56.513Z,89089.13
2022-09-28T14:56:27.014Z,89083.53
2022-09-28T14:58:58.277Z,89097.19
2022-09-28T15:01:26.480Z,89102.06
2022-09-28T15:03:59.627Z,89114.59
2022-09-28T15:06:26.609Z,89101.47
2022-09-28T15:08:53.421Z,89103.47
2022-09-28T15:11:26.600Z,89111.78
2022-09-28T15:14:07.716Z,89105.53
2022-09-28T15:16:34.666Z,89106.38
2022-09-28T15:19:22.781Z,89108.75
2022-09-28T15:21:50.622Z,89108.41
2022-09-28T15:24:31.045Z,89106.50
2022-09-28T15:26:59.621Z,89108.75
2022-09-28T15:29:26.711Z,89110.59
2022-09-28T15:31:54.626Z,89117.47
2022-09-28T15:34:32.511Z,89109.34
2022-09-28T15:36:59.383Z,89116.88
2022-09-28T15:39:32.359Z,89121.66
2022-09-28T15:42:00.227Z,89125.84
2022-09-28T15:44:38.703Z,89137.78
2022-09-28T15:47:10.295Z,89128.97
2022-09-28T15:49:39.837Z,89134.25
2022-09-28T15:52:08.204Z,89139.84
2022-09-28T15:54:43.709Z,89137.84
2022-09-28T15:57:39.038Z,89148.53
2022-09-28T16:00:27.677Z,89147.41
2022-09-28T16:03:04.319Z,89157.72
2022-09-28T16:05:41.752Z,89163.31
2022-09-28T16:09:01.026Z,89161.19
2022-09-28T16:11:37.413Z,89168.28
2022-09-28T16:14:18.774Z,89171.38
2022-09-28T16:16:49.399Z,89159.44
2022-09-28T16:19:24.927Z,89162.69
2022-09-28T16:21:53.554Z,89161.59
2022-09-28T16:24:22.650Z,89167.94
2022-09-28T16:27:01.869Z,89171.31
2022-09-28T16:29:38.126Z,89182.91
2022-09-28T16:32:25.153Z,89183.25
2022-09-28T16:35:16.367Z,89195.13
2022-09-28T16:37:43.285Z,89196.91
2022-09-28T16:40:11.674Z,89198.00
2022-09-28T16:42:48.151Z,89202.84
2022-09-28T16:45:22.806Z,89199.41
2022-09-28T16:47:50.339Z,89204.91
2022-09-28T16:50:17.316Z,89215.47
2022-09-28T16:52:44.141Z,89228.59
2022-09-28T16:55:35.799Z,89221.75
2022-09-28T16:57:58.320Z,89231.97
2022-09-28T17:00:26.723Z,89240.22
2022-09-28T17:02:53.785Z,89242.38
2022-09-28T17:05:20.933Z,89250.91
2022-09-28T17:08:03.063Z,89254.56
2022-09-28T17:11:15.974Z,89245.31
2022-09-28T17:13:41.457Z,89244.22
2022-09-28T17:16:21.040Z,89269.06
2022-09-28T17:18:52.113Z,89261.97
2022-09-28T17:21:20.704Z,89273.22
2022-09-28T17:23:49.579Z,89274.41
2022-09-28T17:26:28.002Z,89278.94
2022-09-28T17:28:54.980Z,89271.09
2022-09-28T17:31:22.009Z,89269.34
2022-09-28T17:33:48.948Z,89293.16
2022-09-28T17:36:18.526Z,89300.31
2022-09-28T17:38:49.497Z,89309.28
2022-09-28T17:41:21.113Z,89322.66
2022-09-28T17:43:48.300Z,89335.91
2022-09-28T17:46:27.318Z,89347.53
2022-09-28T17:48:55.094Z,89338.59
2022-09-28T17:51:21.907Z,89333.84
2022-09-28T17:53:48.993Z,89334.88
2022-09-28T17:56:15.811Z,89345.44
2022-09-28T17:58:42.687Z,89350.03
2022-09-28T18:01:10.089Z,89360.69
2022-09-28T18:03:36.899Z,89359.34
2022-09-28T18:06:11.495Z,89369.50
2022-09-28T18:08:38.431Z,89363.66
2022-09-28T18:11:05.391Z,89363.31
2022-09-28T18:13:32.542Z,89363.25
2022-09-28T18:15:59.410Z,89357.97
2022-09-28T18:18:26.535Z,89369.53
2022-09-28T18:20:53.499Z,89370.59
2022-09-28T18:23:20.559Z,89364.03
2022-09-28T18:25:47.681Z,89366.88
2022-09-28T18:28:15.108Z,89378.50
2022-09-28T18:30:44.588Z,89383.66
2022-09-28T18:33:13.702Z,89392.94
2022-09-28T18:35:41.703Z,89407.84
2022-09-28T18:38:08.732Z,89406.84
2022-09-28T18:40:36.189Z,89406.63
2022-09-28T18:43:03.909Z,89400.09
2022-09-28T18:45:30.730Z,89405.81
2022-09-28T18:47:58.077Z,89392.44
2022-09-28T18:50:25.009Z,89383.78
2022-09-28T18:52:51.856Z,89387.50
2022-09-28T18:55:18.806Z,89378.22
2022-09-28T18:57:45.940Z,89372.63
2022-09-28T19:00:13.448Z,89376.97
2022-09-28T19:02:41.612Z,89379.34
2022-09-28T19:05:08.652Z,89368.88
2022-09-28T19:07:35.484Z,89363.91
2022-09-28T19:10:02.417Z,89363.59
2022-09-28T19:12:29.405Z,89358.66
2022-09-28T19:14:56.234Z,89361.66
2022-09-28T19:17:23.083Z,89357.69
2022-09-28T19:19:49.913Z,89358.22
2022-09-28T19:22:16.727Z,89351.69
2022-09-28T19:24:43.890Z,89357.31
2022-09-28T19:27:10.813Z,89355.63
2022-09-28T19:29:37.585Z,89348.56
2022-09-28T19:32:04.447Z,89342.94
2022-09-28T19:34:31.648Z,89345.31
2022-09-28T19:36:58.532Z,89345.78
2022-09-28T19:39:25.383Z,89346.63
2022-09-28T19:41:52.249Z,89343.84
2022-09-28T19:44:25.357Z,89351.66
2022-09-28T19:46:54.788Z,89353.00
2022-09-28T19:49:22.983Z,89348.16
2022-09-28T19:52:13.836Z,89366.19
2022-09-28T19:54:38.354Z,89392.22
2022-09-28T19:57:05.562Z,89408.13
2022-09-28T19:59:32.356Z,89395.38
2022-09-28T20:01:59.460Z,89375.16
2022-09-28T20:04:29.423Z,89375.38
2022-09-28T20:06:56.291Z,89359.28
2022-09-28T20:09:25.387Z,89344.78
2022-09-28T20:11:52.202Z,89347.41
2022-09-28T20:14:19.130Z,89347.66
2022-09-28T20:16:46.210Z,89341.91
2022-09-28T20:19:13.157Z,89339.88
2022-09-28T20:21:39.870Z,89353.56
2022-09-28T20:24:06.739Z,89373.94
2022-09-28T20:26:33.722Z,89380.19
2022-09-28T20:29:00.575Z,89385.66
2022-09-28T20:31:27.530Z,89387.47
2022-09-28T20:33:54.387Z,89373.03
2022-09-28T20:36:23.556Z,89359.72
2022-09-28T20:38:52.442Z,89358.47
2022-09-28T20:41:21.724Z,89367.59
2022-09-28T20:43:52.668Z,89374.13
2022-09-28T20:46:19.822Z,89375.88
2022-09-28T20:48:46.660Z,89376.31
2022-09-28T20:51:15.891Z,89374.69
2022-09-28T20:53:46.797Z,89371.78
2022-09-28T20:56:18.789Z,89382.53
2022-09-28T20:58:45.711Z,89386.84
2022-09-28T21:01:22.007Z,89391.00
2022-09-28T21:03:51.774Z,89392.25
2022-09-28T21:06:20.487Z,89393.44
2022-09-28T21:08:47.941Z,89401.97
2022-09-28T21:11:16.479Z,89402.22
2022-09-28T21:13:43.234Z,89396.34
2022-09-28T21:16:11.667Z,89389.28
2022-09-28T21:18:42.268Z,89397.63
2022-09-28T21:21:12.681Z,89395.47
2022-09-28T21:23:40.259Z,89391.69
2022-09-28T21:26:10.126Z,89399.81
2022-09-28T21:28:38.149Z,89400.47
2022-09-28T21:31:07.248Z,89400.69
2022-09-28T21:33:34.352Z,89402.84
2022-09-28T21:36:05.819Z,89396.13
2022-09-28T21:38:33.095Z,89390.38
2022-09-28T21:41:00.807Z,89388.63
2022-09-28T21:43:29.644Z,89388.47
2022-09-28T21:45:57.371Z,89394.69
2022-09-28T21:48:26.316Z,89404.97
2022-09-28T21:50:57.724Z,89399.22
2022-09-28T21:53:26.567Z,89400.38
2022-09-28T21:55:53.999Z,89404.91
2022-09-28T21:58:22.030Z,89397.94
2022-09-28T22:00:55.623Z,89403.00
2022-09-28T22:03:24.967Z,89400.47
2022-09-28T22:05:51.719Z,89396.66
2022-09-28T22:08:19.376Z,89401.75
2022-09-28T22:10:57.037Z,89398.72
2022-09-28T22:13:23.810Z,89403.28
2022-09-28T22:15:54.919Z,89400.66
2022-09-28T22:18:21.729Z,89412.59
2022-09-28T22:20:48.432Z,89405.88
2022-09-28T22:23:15.185Z,89418.72
2022-09-28T22:25:42.005Z,89409.63
2022-09-28T22:28:29.039Z,89408.81
2022-09-28T22:30:56.892Z,89400.66
2022-09-28T22:33:24.566Z,89408.59
2022-09-28T22:35:51.519Z,89404.91
2022-09-28T22:38:19.482Z,89405.91
2022-09-28T22:40:49.838Z,89411.50
2022-09-28T22:43:17.527Z,89415.22
2022-09-28T22:45:45.308Z,89412.09
2022-09-28T22:48:12.566Z,89427.00
2022-09-28T22:50:39.570Z,89426.25
2022-09-28T22:53:06.747Z,89418.03
2022-09-28T22:55:33.528Z,89414.13
2022-09-28T22:58:02.958Z,89418.03
2022-09-28T23:00:29.971Z,89415.28
2022-09-28T23:02:56.746Z,89419.13
2022-09-28T23:05:23.795Z,89410.28
2022-09-28T23:07:50.636Z,89410.63
2022-09-28T23:10:17.416Z,89401.97
2022-09-28T23:12:44.205Z,89411.41
2022-09-28T23:15:11.347Z,89406.78
2022-09-28T23:17:38.174Z,89414.84
2022-09-28T23:20:05.387Z,89415.94
2022-09-28T23:22:32.188Z,89407.66
2022-09-28T23:24:59.317Z,89412.72
2022-09-28T23:27:26.062Z,89419.28
2022-09-28T23:29:52.904Z,89418.72
2022-09-28T23:32:19.761Z,89412.44
2022-09-28T23:34:46.496Z,89416.94
2022-09-28T23:37:13.387Z,89414.47
2022-09-28T23:39:40.191Z,89419.50
2022-09-28T23:42:06.926Z,89424.97
2022-09-28T23:44:33.768Z,89429.38
2022-09-28T23:47:00.572Z,89417.91
2022-09-28T23:49:27.386Z,89417.31
2022-09-28T23:51:54.221Z,89422.56
2022-09-28T23:54:20.999Z,89426.63
2022-09-28T23:56:47.768Z,89422.69
2022-09-28T23:59:14.671Z,89423.94
